createdAt,value
2018-01-12T00:00:57.611Z,13.05
2018-01-12T00:01:58.464Z,13.05
2018-01-12T00:03:02.021Z,13.01
2018-01-12T00:04:00.072Z,13.05
2018-01-12T00:05:01.127Z,13.05
2018-01-12T00:06:01.666Z,13.05
2018-01-12T00:07:02.639Z,13.05
2018-01-12T00:08:03.779Z,13.05
2018-01-12T00:09:06.700Z,13.04
2018-01-12T00:10:06.703Z,13.05
2018-01-12T00:11:06.926Z,12.98
2018-01-12T00:12:08.920Z,13.05
2018-01-12T00:13:09.075Z,12.98
2018-01-12T00:14:11.494Z,13.04
2018-01-12T00:15:12.291Z,13.04
2018-01-12T00:16:12.634Z,13.05
2018-01-12T00:17:14.604Z,13.01
2018-01-12T00:18:14.342Z,13.05
2018-01-12T00:19:15.025Z,13.05
2018-01-12T00:20:17.313Z,12.98
2018-01-12T00:21:17.792Z,13.04
2018-01-12T00:22:18.831Z,13.05
2018-01-12T00:23:20.138Z,12.98
2018-01-12T00:24:52.969Z,13.04
2018-01-12T00:25:21.134Z,13.05
2018-01-12T00:26:22.017Z,13.05
2018-01-12T00:27:22.847Z,13.05
2018-01-12T00:28:24.461Z,13.05
2018-01-12T00:29:25.653Z,13.01
2018-01-12T00:30:25.813Z,12.98
2018-01-12T00:31:26.337Z,12.98
2018-01-12T00:32:28.013Z,12.98
2018-01-12T00:33:29.102Z,13.05
2018-01-12T00:34:30.133Z,13.05
2018-01-12T00:35:31.384Z,13.01
2018-01-12T00:36:32.017Z,13.05
2018-01-12T00:37:33.610Z,12.98
2018-01-12T00:38:34.657Z,13.05
2018-01-12T00:39:34.885Z,12.98
2018-01-12T00:40:36.434Z,13.05
2018-01-12T00:41:38.795Z,13.05
2018-01-12T00:42:38.029Z,13.04
2018-01-12T00:43:38.993Z,12.98
2018-01-12T00:44:39.688Z,13.04
2018-01-12T00:45:42.965Z,12.98
2018-01-12T00:46:42.427Z,13.05
2018-01-12T00:47:43.333Z,13.04
2018-01-12T00:48:44.451Z,13.01
2018-01-12T00:49:44.283Z,13.05
2018-01-12T00:50:46.561Z,13.05
2018-01-12T00:51:47.850Z,13.05
2018-01-12T00:52:48.082Z,13.01
2018-01-12T00:53:48.343Z,12.98
2018-01-12T00:54:50.679Z,13.05
2018-01-12T00:55:52.441Z,12.98
2018-01-12T00:56:53.353Z,13.05
2018-01-12T00:57:53.722Z,12.98
2018-01-12T00:58:54.089Z,13.05
2018-01-12T00:59:54.531Z,13.01
2018-01-12T01:00:56.948Z,13.05
2018-01-12T01:01:57.905Z,13.05
2018-01-12T01:02:57.877Z,13.04
2018-01-12T01:03:58.507Z,13.04
2018-01-12T01:04:59.347Z,12.98
2018-01-12T01:06:01.006Z,12.98
2018-01-12T01:07:01.386Z,13.05
2018-01-12T01:08:02.927Z,12.98
2018-01-12T01:09:03.349Z,13.05
2018-01-12T01:10:04.856Z,13.05
2018-01-12T01:11:06.970Z,13.01
2018-01-12T01:12:06.974Z,13.04
2018-01-12T01:13:08.686Z,12.98
2018-01-12T01:14:09.579Z,13.05
2018-01-12T01:15:09.561Z,12.98
2018-01-12T01:16:11.602Z,12.98
2018-01-12T01:17:11.734Z,13.04
2018-01-12T01:18:13.348Z,12.98
2018-01-12T01:19:14.288Z,13.04
2018-01-12T01:20:14.667Z,13.04
2018-01-12T01:21:16.659Z,13.05
2018-01-12T01:22:18.995Z,12.98
2018-01-12T01:23:17.983Z,13.05
2018-01-12T01:24:18.330Z,13.05
2018-01-12T01:25:20.288Z,12.98
2018-01-12T01:26:21.649Z,13.05
2018-01-12T01:27:21.565Z,13.05
2018-01-12T01:28:24.595Z,13.05
2018-01-12T01:29:24.151Z,13.01
2018-01-12T01:30:24.880Z,12.98
2018-01-12T01:31:26.075Z,13.05
2018-01-12T01:32:26.709Z,12.98
2018-01-12T01:33:27.691Z,13.05
2018-01-12T01:34:28.833Z,13.01
2018-01-12T01:35:29.407Z,13.01
2018-01-12T01:36:31.543Z,13.05
2018-01-12T01:37:31.440Z,13.05
2018-01-12T01:38:33.069Z,13.05
2018-01-12T01:39:34.119Z,12.98
2018-01-12T01:40:35.775Z,13.04
2018-01-12T01:41:36.437Z,13.05
2018-01-12T01:42:37.081Z,13.05
2018-01-12T01:43:38.174Z,13.05
2018-01-12T01:44:38.862Z,13.05
2018-01-12T01:45:39.731Z,13.01
2018-01-12T01:46:41.929Z,12.98
2018-01-12T01:47:41.757Z,12.98
2018-01-12T01:48:42.759Z,12.98
2018-01-12T01:49:44.448Z,12.98
2018-01-12T01:50:46.711Z,13.05
2018-01-12T01:51:46.590Z,13.04
2018-01-12T01:52:47.165Z,13.05
2018-01-12T01:53:48.481Z,13.05
2018-01-12T01:54:49.135Z,13.05
2018-01-12T01:55:51.453Z,12.98
2018-01-12T01:56:52.671Z,12.98
2018-01-12T01:57:52.885Z,12.98
2018-01-12T01:58:54.573Z,13.04
2018-01-12T01:59:54.484Z,12.98
2018-01-12T02:00:54.766Z,12.98
2018-01-12T02:01:56.218Z,13.01
2018-01-12T02:02:58.131Z,13.01
2018-01-12T02:03:57.814Z,13.05
2018-01-12T02:04:58.504Z,12.98
2018-01-12T02:05:59.472Z,13.05
2018-01-12T02:07:01.646Z,13.05
2018-01-12T02:08:01.456Z,13.05
2018-01-12T02:09:04.069Z,13.05
2018-01-12T02:10:03.959Z,13.04
2018-01-12T02:11:04.908Z,13.04
2018-01-12T02:12:05.893Z,13.05
2018-01-12T02:13:06.301Z,13.05
2018-01-12T02:14:08.799Z,13.04
2018-01-12T02:15:09.039Z,13.05
2018-01-12T02:16:10.248Z,13.04
2018-01-12T02:17:12.035Z,12.98
2018-01-12T02:18:12.713Z,13.05
2018-01-12T02:19:13.681Z,12.98
2018-01-12T02:20:14.355Z,13.05
2018-01-12T02:21:15.459Z,13.05
2018-01-12T02:22:16.035Z,13.05
2018-01-12T02:23:16.588Z,12.98
2018-01-12T02:24:18.266Z,13.05
2018-01-12T02:25:20.187Z,13.05
2018-01-12T02:26:20.169Z,12.98
2018-01-12T02:27:22.314Z,13.05
2018-01-12T02:28:23.496Z,13.05
2018-01-12T02:29:23.268Z,12.98
2018-01-12T02:30:23.946Z,13.05
2018-01-12T02:31:27.039Z,13.05
2018-01-12T02:32:26.966Z,13.05
2018-01-12T02:33:27.587Z,13.04
2018-01-12T02:34:28.035Z,13.05
2018-01-12T02:35:29.182Z,13.01
2018-01-12T02:36:29.783Z,13.01
2018-01-12T02:37:32.289Z,12.98
2018-01-12T02:38:31.551Z,13.05
2018-01-12T02:39:32.591Z,12.98
2018-01-12T02:40:33.579Z,13.05
2018-01-12T02:41:35.548Z,12.98
2018-01-12T02:42:36.123Z,13.05
2018-01-12T02:43:37.341Z,13.05
2018-01-12T02:44:36.956Z,13.01
2018-01-12T02:45:38.893Z,13.02
2018-01-12T02:46:39.655Z,13.05
2018-01-12T02:47:40.921Z,12.98
2018-01-12T02:48:42.783Z,12.98
2018-01-12T02:49:43.031Z,13.05
2018-01-12T02:50:44.695Z,13.04
2018-01-12T02:51:44.884Z,13.05
2018-01-12T02:52:46.327Z,13.05
2018-01-12T02:53:46.942Z,13.01
2018-01-12T02:54:48.962Z,12.98
2018-01-12T02:55:49.198Z,13.05
2018-01-12T02:56:49.735Z,12.98
2018-01-12T02:57:51.028Z,12.98
2018-01-12T02:58:52.293Z,13.01
2018-01-12T02:59:53.355Z,12.98
2018-01-12T03:00:55.006Z,13.05
2018-01-12T03:01:56.071Z,13.01
2018-01-12T03:02:58.031Z,13.05
2018-01-12T03:03:58.219Z,12.98
2018-01-12T03:04:58.589Z,13.05
2018-01-12T03:05:58.943Z,13.05
2018-01-12T03:07:00.674Z,13.05
2018-01-12T03:08:02.045Z,13.05
2018-01-12T03:09:01.910Z,13.05
2018-01-12T03:10:03.275Z,13.05
2018-01-12T03:11:03.640Z,13.05
2018-01-12T03:12:05.865Z,13.01
2018-01-12T03:13:05.994Z,12.98
2018-01-12T03:14:06.629Z,12.98
2018-01-12T03:15:08.246Z,12.98
2018-01-12T03:16:09.860Z,12.98
2018-01-12T03:17:10.325Z,13.04
2018-01-12T03:18:13.993Z,13.01
2018-01-12T03:19:12.828Z,13.04
2018-01-12T03:20:13.540Z,12.98
2018-01-12T03:21:14.611Z,13.05
2018-01-12T03:22:15.058Z,13.01
2018-01-12T03:23:16.987Z,12.98
2018-01-12T03:24:17.567Z,12.98
2018-01-12T03:25:17.609Z,12.98
2018-01-12T03:26:18.519Z,13.05
2018-01-12T03:27:20.745Z,13.05
2018-01-12T03:28:20.876Z,12.98
2018-01-12T03:29:22.107Z,13.05
2018-01-12T03:30:23.799Z,13.05
2018-01-12T03:31:24.127Z,13.05
2018-01-12T03:32:25.113Z,12.98
2018-01-12T03:33:26.585Z,13.05
2018-01-12T03:34:27.154Z,13.01
2018-01-12T03:35:27.810Z,13.05
2018-01-12T03:36:30.217Z,13.02
2018-01-12T03:37:29.867Z,13.01
2018-01-12T03:38:31.871Z,12.98
2018-01-12T03:39:32.413Z,13.05
2018-01-12T03:40:32.522Z,13.01
2018-01-12T03:41:33.360Z,12.98
2018-01-12T03:42:34.460Z,13.02
2018-01-12T03:43:37.164Z,12.98
2018-01-12T03:44:37.173Z,13.05
2018-01-12T03:45:38.245Z,12.98
2018-01-12T03:46:40.353Z,13.04
2018-01-12T03:47:40.715Z,13.05
2018-01-12T03:48:41.498Z,12.98
2018-01-12T03:49:42.827Z,13.01
2018-01-12T03:50:42.445Z,13.05
2018-01-12T03:51:43.477Z,13.05
2018-01-12T03:52:45.110Z,13.05
2018-01-12T03:53:47.524Z,13.04
2018-01-12T03:54:46.779Z,13.05
2018-01-12T03:55:49.045Z,13.05
2018-01-12T03:56:49.105Z,13.05
2018-01-12T03:57:50.909Z,13.05
2018-01-12T03:58:51.459Z,13.05
2018-01-12T03:59:52.577Z,13.05
2018-01-12T04:00:53.404Z,12.98
2018-01-12T04:01:54.131Z,13.04
2018-01-12T04:02:55.461Z,12.98
2018-01-12T04:03:56.109Z,13.05
2018-01-12T04:04:57.115Z,13.01
2018-01-12T04:05:58.169Z,13.05
2018-01-12T04:06:59.095Z,13.05
2018-01-12T04:08:00.717Z,13.05
2018-01-12T04:09:01.158Z,13.04
2018-01-12T04:10:02.209Z,13.05
2018-01-12T04:11:03.790Z,12.98
2018-01-12T04:12:05.501Z,13.04
2018-01-12T04:13:06.701Z,13.01
2018-01-12T04:14:06.782Z,13.01
2018-01-12T04:15:07.187Z,13.05
2018-01-12T04:16:07.685Z,13.05
2018-01-12T04:17:08.693Z,13.05
2018-01-12T04:18:10.128Z,13.05
2018-01-12T04:19:11.277Z,12.98
2018-01-12T04:20:12.676Z,13.04
2018-01-12T04:21:13.750Z,13.05
2018-01-12T04:22:13.419Z,13.04
2018-01-12T04:23:15.153Z,13.05
2018-01-12T04:24:16.624Z,13.04
2018-01-12T04:25:17.217Z,13.05
2018-01-12T04:26:18.807Z,13.01
2018-01-12T04:27:19.875Z,13.02
2018-01-12T04:28:20.356Z,12.98
2018-01-12T04:29:21.798Z,12.98
2018-01-12T04:30:23.319Z,12.98
2018-01-12T04:31:23.689Z,13.05
2018-01-12T04:32:24.638Z,13.05
2018-01-12T04:33:25.047Z,13.05
2018-01-12T04:34:26.370Z,13.01
2018-01-12T04:35:27.391Z,13.05
2018-01-12T04:36:27.610Z,13.05
2018-01-12T04:37:29.298Z,13.01
2018-01-12T04:38:29.639Z,13.05
2018-01-12T04:39:31.809Z,13.01
2018-01-12T04:40:32.427Z,12.98
2018-01-12T04:41:33.031Z,13.05
2018-01-12T04:42:34.071Z,12.98
2018-01-12T04:43:34.434Z,13.05
2018-01-12T04:44:35.849Z,13.04
2018-01-12T04:45:37.266Z,12.98
2018-01-12T04:46:40.733Z,13.05
2018-01-12T04:47:39.691Z,13.05
2018-01-12T04:49:32.016Z,13.01
2018-01-12T04:49:41.380Z,13.05
2018-01-12T04:50:41.625Z,13.04
2018-01-12T04:51:42.526Z,13.01
2018-01-12T04:52:44.311Z,12.98
2018-01-12T04:53:44.621Z,13.01
2018-01-12T04:54:47.789Z,13.01
2018-01-12T04:55:46.975Z,13.01
2018-01-12T04:56:47.832Z,13.05
2018-01-12T04:57:49.900Z,12.98
2018-01-12T04:58:50.968Z,13.05
2018-01-12T04:59:51.220Z,12.98
2018-01-12T05:00:51.935Z,13.05
2018-01-12T05:01:53.207Z,13.05
2018-01-12T05:02:54.658Z,13.05
2018-01-12T05:03:55.018Z,12.98
2018-01-12T05:04:56.001Z,13.04
2018-01-12T05:05:56.552Z,13.04
2018-01-12T05:06:59.012Z,13.05
2018-01-12T05:07:59.224Z,13.04
2018-01-12T05:09:00.246Z,13.05
2018-01-12T05:10:01.632Z,13.01
2018-01-12T05:11:03.368Z,12.98
2018-01-12T05:12:03.948Z,13.01
2018-01-12T05:13:05.072Z,13.05
2018-01-12T05:14:06.741Z,13.05
2018-01-12T05:15:06.266Z,13.01
2018-01-12T05:16:06.875Z,13.05
2018-01-12T05:17:07.818Z,13.05
2018-01-12T05:18:09.714Z,12.98
2018-01-12T05:19:11.246Z,12.98
2018-01-12T05:20:12.028Z,13.05
2018-01-12T05:21:11.564Z,13.05
2018-01-12T05:22:12.540Z,12.98
2018-01-12T05:23:13.526Z,12.98
2018-01-12T05:24:15.178Z,12.98
2018-01-12T05:25:17.663Z,13.05
2018-01-12T05:26:18.350Z,13.05
2018-01-12T05:27:19.354Z,13.05
2018-01-12T05:28:20.865Z,13.01
2018-01-12T05:29:20.678Z,13.01
2018-01-12T05:30:22.111Z,13.05
2018-01-12T05:31:23.663Z,13.05
2018-01-12T05:32:23.449Z,13.05
2018-01-12T05:33:24.308Z,13.05
2018-01-12T05:34:25.484Z,12.98
2018-01-12T05:35:26.501Z,13.05
2018-01-12T05:36:28.284Z,12.98
2018-01-12T05:37:28.011Z,13.01
2018-01-12T05:38:28.990Z,13.05
2018-01-12T05:39:29.990Z,13.05
2018-01-12T05:40:31.723Z,13.01
2018-01-12T05:41:31.939Z,13.05
2018-01-12T05:42:33.228Z,12.98
2018-01-12T05:43:35.184Z,13.04
2018-01-12T05:44:35.319Z,13.05
2018-01-12T05:45:36.679Z,13.05
2018-01-12T05:46:37.313Z,13.05
2018-01-12T05:47:38.393Z,13.05
2018-01-12T05:48:39.714Z,13.05
2018-01-12T05:49:40.274Z,13.04
2018-01-12T05:50:42.514Z,13.05
2018-01-12T05:51:42.230Z,13.05
2018-01-12T05:52:43.561Z,13.01
2018-01-12T05:53:45.196Z,13.05
2018-01-12T05:54:44.937Z,13.05
2018-01-12T05:55:45.930Z,13.05
2018-01-12T05:56:46.917Z,12.98
2018-01-12T05:57:49.777Z,12.98
2018-01-12T05:58:48.815Z,13.01
2018-01-12T05:59:49.566Z,12.98
2018-01-12T06:00:51.814Z,13.05
2018-01-12T06:01:52.329Z,13.05
2018-01-12T06:02:54.014Z,13.05
2018-01-12T06:03:54.402Z,13.05
2018-01-12T06:04:56.049Z,12.98
2018-01-12T06:05:56.756Z,13.05
2018-01-12T06:06:58.301Z,13.05
2018-01-12T06:07:59.390Z,12.98
2018-01-12T06:08:59.023Z,12.98
2018-01-12T06:10:00.690Z,12.98
2018-01-12T06:11:01.554Z,13.04
2018-01-12T06:12:02.056Z,13.01
2018-01-12T06:13:03.193Z,12.98
2018-01-12T06:14:05.402Z,13.04
2018-01-12T06:15:05.684Z,12.98
2018-01-12T06:16:07.079Z,13.05
2018-01-12T06:17:08.552Z,13.05
2018-01-12T06:18:09.330Z,13.05
2018-01-12T06:19:09.671Z,13.04
2018-01-12T06:20:11.315Z,12.98
2018-01-12T06:21:13.477Z,13.05
2018-01-12T06:22:13.292Z,13.05
2018-01-12T06:23:15.510Z,13.05
2018-01-12T06:24:16.085Z,12.98
2018-01-12T06:25:17.277Z,13.05
2018-01-12T06:26:19.468Z,13.05
2018-01-12T06:27:19.057Z,13.05
2018-01-12T06:28:20.666Z,12.98
2018-01-12T06:29:21.913Z,13.05
2018-01-12T06:30:21.662Z,13.05
2018-01-12T06:31:23.262Z,13.04
2018-01-12T06:32:24.419Z,13.05
2018-01-12T06:33:24.139Z,12.98
2018-01-12T06:34:25.032Z,13.04
2018-01-12T06:35:25.722Z,12.98
2018-01-12T06:36:27.828Z,13.05
2018-01-12T06:37:28.093Z,13.04
2018-01-12T06:38:29.034Z,12.98
2018-01-12T06:39:31.719Z,13.05
2018-01-12T06:40:31.062Z,13.04
2018-01-12T06:41:32.461Z,13.05
2018-01-12T06:42:32.588Z,13.01
2018-01-12T06:43:33.690Z,13.05
2018-01-12T06:44:34.255Z,13.05
2018-01-12T06:45:36.195Z,13.05
2018-01-12T06:46:37.592Z,13.05
2018-01-12T06:47:38.210Z,13.05
2018-01-12T06:48:40.578Z,12.98
2018-01-12T06:49:41.573Z,13.05
2018-01-12T06:50:40.844Z,13.05
2018-01-12T06:51:42.232Z,13.05
2018-01-12T06:52:44.144Z,13.04
2018-01-12T06:53:44.788Z,13.05
2018-01-12T06:54:45.595Z,13.05
2018-01-12T06:55:45.847Z,13.05
2018-01-12T06:56:47.610Z,13.05
2018-01-12T06:57:47.587Z,13.01
2018-01-12T06:58:48.508Z,13.05
2018-01-12T06:59:51.029Z,13.05
2018-01-12T07:00:51.506Z,13.05
2018-01-12T07:01:53.265Z,13.05
2018-01-12T07:02:53.609Z,13.05
2018-01-12T07:03:54.747Z,13.04
2018-01-12T07:04:56.464Z,13.05
2018-01-12T07:05:55.881Z,12.98
2018-01-12T07:06:57.291Z,13.05
2018-01-12T07:07:58.574Z,13.05
2018-01-12T07:08:59.153Z,13.05
2018-01-12T07:10:00.649Z,13.04
2018-01-12T07:11:01.533Z,12.98
2018-01-12T07:12:03.445Z,12.98
2018-01-12T07:13:03.376Z,13.05
2018-01-12T07:14:04.413Z,13.01
2018-01-12T07:15:04.665Z,12.98
2018-01-12T07:16:07.673Z,13.05
2018-01-12T07:17:08.478Z,13.04
2018-01-12T07:18:08.640Z,13.05
2018-01-12T07:19:09.850Z,13.06
2018-01-12T07:20:10.273Z,13.05
2018-01-12T07:21:10.977Z,13.06
2018-01-12T07:22:12.352Z,13.01
2018-01-12T07:23:12.948Z,13.01
2018-01-12T07:24:14.940Z,13.05
2018-01-12T07:25:15.117Z,13.05
2018-01-12T07:26:16.698Z,13.01
2018-01-12T07:27:17.962Z,13.01
2018-01-12T07:28:19.457Z,13.11
2018-01-12T07:29:19.839Z,13.11
2018-01-12T07:30:21.732Z,13.14
2018-01-12T07:31:22.057Z,13.11
2018-01-12T07:32:23.271Z,13.14
2018-01-12T07:33:23.991Z,13.11
2018-01-12T07:34:24.326Z,13.09
2018-01-12T07:35:26.253Z,13.17
2018-01-12T07:36:26.344Z,13.09
2018-01-12T07:37:27.866Z,13.17
2018-01-12T07:38:28.807Z,13.12
2018-01-12T07:39:29.412Z,13.09
2018-01-12T07:40:30.162Z,13.17
2018-01-12T07:41:30.612Z,13.18
2018-01-12T07:42:31.990Z,13.23
2018-01-12T07:43:33.122Z,13.21
2018-01-12T07:45:08.481Z,13.26
2018-01-12T07:45:39.258Z,13.21
2018-01-12T07:46:37.086Z,13.28
2018-01-12T07:47:38.246Z,13.21
2018-01-12T07:48:39.554Z,13.24
2018-01-12T07:49:39.129Z,13.3
2018-01-12T07:50:40.517Z,13.3
2018-01-12T07:51:42.255Z,13.31
2018-01-12T07:52:43.551Z,13.37
2018-01-12T07:53:44.245Z,13.33
2018-01-12T07:54:44.344Z,13.4
2018-01-12T07:55:45.766Z,13.39
2018-01-12T07:56:46.084Z,13.43
2018-01-12T07:57:47.289Z,13.52
2018-01-12T07:58:47.880Z,13.61
2018-01-12T07:59:48.548Z,13.81
2018-01-12T08:00:51.223Z,14.03
2018-01-12T08:01:51.457Z,14.37
2018-01-12T08:02:53.132Z,14.4
2018-01-12T08:03:53.830Z,14.43
2018-01-12T08:04:54.350Z,14.43
2018-01-12T08:05:55.593Z,14.43
2018-01-12T08:06:57.328Z,14.4
2018-01-12T08:07:58.214Z,14.38
2018-01-12T08:08:58.675Z,14.4
2018-01-12T08:09:59.403Z,14.33
2018-01-12T08:11:00.358Z,14.43
2018-01-12T08:12:01.025Z,14.33
2018-01-12T08:13:03.412Z,14.35
2018-01-12T08:14:02.639Z,14.35
2018-01-12T08:15:04.725Z,14.33
2018-01-12T08:16:05.468Z,14.3
2018-01-12T08:17:06.988Z,14.4
2018-01-12T08:18:08.322Z,14.37
2018-01-12T08:19:08.722Z,14.4
2018-01-12T08:20:09.473Z,14.33
2018-01-12T08:21:10.332Z,14.35
2018-01-12T08:22:11.404Z,14.37
2018-01-12T08:23:12.836Z,14.4
2018-01-12T08:24:13.504Z,14.4
2018-01-12T08:25:14.592Z,14.31
2018-01-12T08:26:16.022Z,14.34
2018-01-12T08:27:16.921Z,14.27
2018-01-12T08:28:18.141Z,14.34
2018-01-12T08:29:18.369Z,14.33
2018-01-12T08:30:46.568Z,14.34
2018-01-12T08:31:21.309Z,14.34
2018-01-12T08:32:22.613Z,14.34
2018-01-12T08:33:21.688Z,14.34
2018-01-12T08:34:22.899Z,14.31
2018-01-12T08:35:23.505Z,14.3
2018-01-12T08:36:24.874Z,14.33
2018-01-12T08:37:26.571Z,14.31
2018-01-12T08:38:27.510Z,14.3
2018-01-12T08:39:28.416Z,14.3
2018-01-12T08:40:29.601Z,14.3
2018-01-12T08:41:30.443Z,14.27
2018-01-12T08:42:30.475Z,14.27
2018-01-12T08:43:33.042Z,14.28
2018-01-12T08:44:33.241Z,14.34
2018-01-12T08:45:33.513Z,14.28
2018-01-12T08:46:35.572Z,14.3
2018-01-12T08:47:37.017Z,14.27
2018-01-12T08:48:51.365Z,14.21
2018-01-12T08:49:39.107Z,14.28
2018-01-12T08:50:39.965Z,14.18
2018-01-12T08:51:41.007Z,14.27
2018-01-12T08:52:41.420Z,14.3
2018-01-12T08:56:18.827Z,14.27
2018-01-12T08:56:51.914Z,14.22
2018-01-12T08:57:52.862Z,14.22
2018-01-12T08:58:53.892Z,14.18
2018-01-12T09:00:32.547Z,14.18
2018-01-12T09:00:56.687Z,14.15
2018-01-12T09:02:02.875Z,14.21
2018-01-12T09:02:59.597Z,14.12
2018-01-12T09:04:00.054Z,14.11
2018-01-12T09:05:00.282Z,14.09
2018-01-12T09:06:42.244Z,14.06
2018-01-12T09:07:01.612Z,14.06
2018-01-12T09:08:04.283Z,14.08
2018-01-12T09:09:05.006Z,14.08
2018-01-12T09:10:05.297Z,14.08
2018-01-12T09:12:41.048Z,14.08
2018-01-12T09:12:44.170Z,14.03
2018-01-12T09:13:47.237Z,14.05
2018-01-12T09:14:47.688Z,14.03
2018-01-12T09:15:48.332Z,14.05
2018-01-12T09:16:50.675Z,14.03
2018-01-12T09:17:51.780Z,14.03
2018-01-12T09:18:51.905Z,14.19
2018-01-12T09:19:54.262Z,14.15
2018-01-12T09:20:54.022Z,14.16
2018-01-12T09:21:55.837Z,14.02
2018-01-12T09:22:55.811Z,14.09
2018-01-12T09:23:58.087Z,13.94
2018-01-12T09:24:58.253Z,14.05
2018-01-12T09:25:59.924Z,14
2018-01-12T09:26:59.593Z,13.94
2018-01-12T09:28:01.254Z,13.99
2018-01-12T09:29:03.666Z,14.15
2018-01-12T09:30:04.443Z,13.91
2018-01-12T09:31:04.664Z,13.99
2018-01-12T09:32:06.469Z,13.96
2018-01-12T09:33:07.387Z,14.11
2018-01-12T09:34:07.601Z,13.99
2018-01-12T09:35:08.695Z,13.99
2018-01-12T09:36:08.899Z,13.91
2018-01-12T09:37:10.656Z,13.91
2018-01-12T09:38:10.687Z,13.99
2018-01-12T09:39:12.011Z,14.06
2018-01-12T09:40:12.975Z,13.94
2018-01-12T09:41:13.929Z,13.99
2018-01-12T09:42:15.269Z,14.15
2018-01-12T09:43:15.336Z,13.91
2018-01-12T09:44:17.625Z,13.99
2018-01-12T09:45:19.382Z,13.96
2018-01-12T09:46:19.152Z,13.93
2018-01-12T09:47:20.637Z,14.16
2018-01-12T09:48:22.334Z,14.16
2018-01-12T09:49:22.079Z,14.11
2018-01-12T09:50:23.505Z,13.99
2018-01-12T09:51:24.056Z,14.08
2018-01-12T09:52:24.966Z,13.91
2018-01-12T09:53:25.963Z,14.12
2018-01-12T09:54:27.972Z,14.11
2018-01-12T09:55:28.135Z,14.12
2018-01-12T09:56:30.030Z,14.16
2018-01-12T09:57:31.151Z,14.05
2018-01-12T09:58:32.017Z,14.06
2018-01-12T09:59:32.896Z,14.06
2018-01-12T10:00:34.046Z,14.03
2018-01-12T10:01:34.794Z,14
2018-01-12T10:02:35.993Z,14.06
2018-01-12T10:03:35.929Z,14.08
2018-01-12T10:04:37.648Z,14.06
2018-01-12T10:05:39.366Z,14.11
2018-01-12T10:06:39.817Z,14.06
2018-01-12T10:07:40.016Z,14.06
2018-01-12T10:08:40.705Z,14.03
2018-01-12T10:09:42.039Z,14.12
2018-01-12T10:10:43.114Z,14.11
2018-01-12T10:11:44.654Z,14.11
2018-01-12T10:12:46.633Z,14.13
2018-01-12T10:13:46.299Z,14.08
2018-01-12T10:14:46.872Z,14.11
2018-01-12T10:15:48.608Z,14.09
2018-01-12T10:16:50.069Z,14
2018-01-12T10:17:49.908Z,13.99
2018-01-12T10:18:51.871Z,13.99
2018-01-12T10:19:51.719Z,13.99
2018-01-12T10:20:53.919Z,13.99
2018-01-12T10:21:55.191Z,13.99
2018-01-12T10:22:54.871Z,13.99
2018-01-12T10:23:57.299Z,14.05
2018-01-12T10:24:57.673Z,14
2018-01-12T10:25:58.752Z,13.99
2018-01-12T10:26:59.094Z,14.05
2018-01-12T10:28:00.998Z,14.11
2018-01-12T10:29:03.164Z,14.08
2018-01-12T10:30:02.962Z,14.08
2018-01-12T10:31:03.895Z,14.03
2018-01-12T10:32:05.453Z,14.05
2018-01-12T10:33:05.865Z,14.11
2018-01-12T10:34:06.287Z,14.11
2018-01-12T10:35:08.682Z,14.12
2018-01-12T10:36:09.457Z,14.11
2018-01-12T10:37:09.599Z,14.06
2018-01-12T10:38:10.750Z,14.15
2018-01-12T10:39:11.352Z,14.12
2018-01-12T10:40:12.574Z,14.08
2018-01-12T10:41:13.650Z,14.15
2018-01-12T10:42:14.514Z,14.13
2018-01-12T10:43:15.296Z,14.09
2018-01-12T10:44:16.007Z,14.11
2018-01-12T10:45:17.118Z,14.09
2018-01-12T10:46:18.479Z,14.11
2018-01-12T10:47:19.006Z,14.11
2018-01-12T10:48:19.743Z,14.11
2018-01-12T10:49:20.664Z,14.06
2018-01-12T10:50:22.067Z,14.12
2018-01-12T10:51:26.367Z,14.09
2018-01-12T10:54:42.800Z,14.16
2018-01-12T10:55:35.409Z,14.11
2018-01-12T10:56:34.705Z,14.06
2018-01-12T10:57:37.446Z,14.11
2018-01-12T10:58:37.008Z,14.09
2018-01-12T10:59:38.841Z,14.16
2018-01-12T11:00:39.502Z,14.16
2018-01-12T11:01:40.537Z,14.16
2018-01-12T11:02:41.072Z,14.06
2018-01-12T11:03:42.843Z,14.11
2018-01-12T11:04:43.125Z,14.08
2018-01-12T11:05:43.795Z,14.12
2018-01-12T11:06:46.691Z,14.11
2018-01-12T11:07:46.329Z,14.11
2018-01-12T11:08:47.476Z,14.13
2018-01-12T11:09:48.510Z,14.15
2018-01-12T11:10:49.216Z,14.03
2018-01-12T11:11:50.005Z,14.13
2018-01-12T11:12:50.763Z,14.12
2018-01-12T11:13:52.943Z,14.11
2018-01-12T11:14:54.003Z,14.11
2018-01-12T11:15:54.957Z,14.11
2018-01-12T11:16:56.967Z,14.09
2018-01-12T11:17:56.752Z,14.19
2018-01-12T11:18:57.638Z,14.06
2018-01-12T11:19:59.075Z,14.09
2018-01-12T11:21:00.282Z,14.09
2018-01-12T11:22:01.009Z,14.06
2018-01-12T11:23:01.271Z,14.13
2018-01-12T11:24:03.091Z,14.03
2018-01-12T11:25:03.028Z,14.03
2018-01-12T11:26:03.805Z,14
2018-01-12T11:27:05.374Z,13.97
2018-01-12T11:28:06.458Z,13.97
2018-01-12T11:29:08.806Z,14
2018-01-12T11:30:08.628Z,14.12
2018-01-12T11:31:09.554Z,14.08
2018-01-12T11:32:11.785Z,14.02
2018-01-12T11:33:12.273Z,14.05
2018-01-12T11:34:12.645Z,14.03
2018-01-12T11:35:12.477Z,14.02
2018-01-12T11:36:14.017Z,13.97
2018-01-12T11:37:14.930Z,14.03
2018-01-12T11:38:16.687Z,14.03
2018-01-12T11:39:16.757Z,14.03
2018-01-12T11:40:21.695Z,14.19
2018-01-12T11:41:19.447Z,14.19
2018-01-12T11:42:20.963Z,14.19
2018-01-12T11:43:21.497Z,14.12
2018-01-12T11:44:22.831Z,14.19
2018-01-12T11:46:47.918Z,14.12
2018-01-12T11:46:54.740Z,14.13
2018-01-12T11:47:53.911Z,14.09
2018-01-12T11:48:55.349Z,14.09
2018-01-12T11:49:54.438Z,14.11
2018-01-12T11:50:55.838Z,14.11
2018-01-12T11:51:56.397Z,14.16
2018-01-12T11:52:58.158Z,14.16
2018-01-12T11:53:59.075Z,14.15
2018-01-12T11:55:01.039Z,14.18
2018-01-12T11:56:02.443Z,14.15
2018-01-12T11:57:02.941Z,14.19
2018-01-12T11:58:03.979Z,14.15
2018-01-12T11:59:09.984Z,14.12
2018-01-12T12:00:05.847Z,14.13
2018-01-12T12:01:08.237Z,14.11
2018-01-12T12:02:07.637Z,14.03
2018-01-12T12:03:09.170Z,14.11
2018-01-12T12:04:09.620Z,14.03
2018-01-12T12:05:10.188Z,14.03
2018-01-12T12:06:11.463Z,14.02
2018-01-12T12:07:12.257Z,14
2018-01-12T12:08:13.862Z,14.02
2018-01-12T12:09:14.492Z,13.97
2018-01-12T12:10:14.443Z,13.99
2018-01-12T12:11:15.558Z,13.99
2018-01-12T12:12:16.430Z,13.91
2018-01-12T12:13:19.175Z,13.94
2018-01-12T12:14:19.090Z,13.96
2018-01-12T12:15:20.674Z,13.94
2018-01-12T12:16:21.831Z,13.91
2018-01-12T12:17:22.393Z,13.96
2018-01-12T12:18:23.721Z,13.94
2018-01-12T12:19:24.246Z,13.94
2018-01-12T12:20:27.164Z,13.91
2018-01-12T12:21:26.379Z,13.86
2018-01-12T12:22:27.668Z,13.89
2018-01-12T12:23:28.409Z,13.86
2018-01-12T12:24:28.735Z,13.86
2018-01-12T12:25:29.241Z,13.86
2018-01-12T12:26:31.394Z,13.8
2018-01-12T12:27:31.664Z,13.83
2018-01-12T12:28:33.020Z,13.81
2018-01-12T12:29:34.575Z,13.81
2018-01-12T12:30:36.798Z,13.74
2018-01-12T12:31:35.951Z,13.74
2018-01-12T12:32:37.750Z,13.75
2018-01-12T12:33:38.567Z,13.75
2018-01-12T12:34:39.443Z,13.71
2018-01-12T12:35:40.651Z,13.65
2018-01-12T12:36:41.771Z,13.65
2018-01-12T12:37:42.723Z,13.59
2018-01-12T12:38:44.939Z,13.59
2018-01-12T12:39:44.763Z,13.56
2018-01-12T12:40:44.917Z,13.5
2018-01-12T12:41:46.168Z,13.52
2018-01-12T12:42:46.406Z,13.45
2018-01-12T12:43:48.558Z,13.49
2018-01-12T12:44:49.596Z,13.46
2018-01-12T12:45:50.089Z,13.43
2018-01-12T12:46:51.558Z,13.4
2018-01-12T12:47:52.561Z,13.36
2018-01-12T12:48:54.301Z,13.34
2018-01-12T12:49:55.253Z,13.31
2018-01-12T12:50:55.956Z,13.28
2018-01-12T12:51:57.117Z,13.28
2018-01-12T12:52:57.627Z,13.26
2018-01-12T12:53:59.059Z,13.18
2018-01-12T12:54:58.889Z,13.17
2018-01-12T12:56:00.361Z,13.14
2018-01-12T12:57:01.121Z,13.09
2018-01-12T12:58:01.581Z,13.09
2018-01-12T12:59:04.324Z,13.01
2018-01-12T13:00:05.013Z,13.05
2018-01-12T13:01:05.573Z,13.06
2018-01-12T13:02:12.021Z,13.05
2018-01-12T13:03:08.397Z,13.05
2018-01-12T13:04:08.942Z,13.04
2018-01-12T13:05:09.250Z,13.01
2018-01-12T13:06:11.624Z,13.05
2018-01-12T13:07:11.344Z,13.05
2018-01-12T13:08:11.741Z,13.05
2018-01-12T13:09:13.198Z,13.05
2018-01-12T13:10:14.826Z,13.05
2018-01-12T13:11:15.823Z,13.05
2018-01-12T13:12:16.117Z,13.05
2018-01-12T13:13:17.529Z,13.04